Time;durP1;ratioP1;P1;durP2;ratioP2;P2;SDS_P1;SDS_P2;PMS_P1;PMS_P2;Temp;Humidity;BMP_temperature;BMP_pressure;BME280_temperature;BME280_humidity;BME280_pressure;Samples;Min_cycle;Max_cycle;Signal;HPM_P1;HPM_P2
2023/05/20 00:01:34;;;;;;;8.25;6.50;;;14.10;96.40;;;;;;5011734;28;20137;-51
2023/05/20 00:04:20;;;;;;;9.07;6.38;;;14.20;96.40;;;;;;5012455;28;20110;-49
2023/05/20 00:07:06;;;;;;;7.25;6.55;;;14.10;96.60;;;;;;5011632;28;20030;-49
2023/05/20 00:09:52;;;;;;;12.07;7.20;;;14.10;96.60;;;;;;5013107;28;20030;-49
2023/05/20 00:12:38;;;;;;;7.68;6.47;;;13.90;96.80;;;;;;5017443;28;20041;-54
2023/05/20 00:15:24;;;;;;;7.22;6.03;;;13.90;97.10;;;;;;5013611;28;20033;-49
2023/05/20 00:18:10;;;;;;;7.90;6.65;;;13.90;97.10;;;;;;5012879;28;20096;-49
2023/05/20 00:20:56;;;;;;;6.80;6.10;;;13.80;97.30;;;;;;5011753;28;20029;-50
2023/05/20 00:23:42;;;;;;;7.20;6.50;;;13.90;97.40;;;;;;5012286;28;20116;-49
2023/05/20 00:26:28;;;;;;;8.23;6.28;;;13.70;97.50;;;;;;5011507;28;20038;-50
2023/05/20 00:29:14;;;;;;;8.30;6.40;;;13.70;97.70;;;;;;5011439;28;20022;-49
2023/05/20 00:32:00;;;;;;;7.57;6.45;;;13.70;97.90;;;;;;5011452;28;20105;-48
2023/05/20 00:34:56;;;;;;;8.25;6.85;;;13.70;97.90;;;;;;5011282;28;20062;-51
2023/05/20 00:37:42;;;;;;;9.68;6.97;;;13.70;98.00;;;;;;5011742;28;20113;-49
2023/05/20 00:40:28;;;;;;;9.07;6.50;;;13.70;98.00;;;;;;5012104;28;20578;-50
2023/05/20 00:43:14;;;;;;;9.70;6.75;;;13.70;98.10;;;;;;5013402;28;20045;-49
2023/05/20 00:46:00;;;;;;;7.30;6.60;;;13.70;98.00;;;;;;5015194;28;20030;-54
2023/05/20 00:48:46;;;;;;;8.93;6.80;;;13.70;98.20;;;;;;5012987;28;20084;-49
2023/05/20 00:51:33;;;;;;;8.07;7.07;;;13.60;98.30;;;;;;5012620;28;20061;-50
2023/05/20 00:54:19;;;;;;;8.57;6.45;;;13.60;98.50;;;;;;5012068;28;20033;-48
2023/05/20 00:57:06;;;;;;;8.90;7.35;;;13.60;98.70;;;;;;5012628;28;20034;-49
2023/05/20 00:59:52;;;;;;;7.97;6.18;;;13.60;98.70;;;;;;5010764;28;20029;-49
2023/05/20 01:02:38;;;;;;;7.13;6.18;;;13.70;98.40;;;;;;5012461;28;20040;-49
2023/05/20 01:05:24;;;;;;;8.05;7.03;;;13.60;98.50;;;;;;5012345;28;20482;-50
2023/05/20 01:08:10;;;;;;;8.15;6.28;;;13.60;98.60;;;;;;5012231;28;20398;-49
2023/05/20 01:11:08;;;;;;;7.88;6.25;;;13.50;98.70;;;;;;5013653;28;20038;-48
2023/05/20 01:14:00;;;;;;;8.35;6.88;;;13.50;98.70;;;;;;5012265;28;20112;-54
2023/05/20 01:16:48;;;;;;;8.00;6.50;;;13.50;98.70;;;;;;5012093;28;20041;-50
2023/05/20 01:19:45;;;;;;;8.52;6.57;;;13.50;98.70;;;;;;5011365;28;20459;-49
2023/05/20 01:22:31;;;;;;;8.75;5.82;;;13.40;98.80;;;;;;5011908;28;20033;-51
2023/05/20 01:25:16;;;;;;;7.80;5.90;;;13.40;99.30;;;;;;5011089;28;20098;-49
2023/05/20 01:28:03;;;;;;;9.15;6.15;;;13.40;99.70;;;;;;5011473;28;20018;-49
2023/05/20 01:30:55;;;;;;;8.13;6.50;;;13.40;99.30;;;;;;5011623;28;20018;-50
2023/05/20 01:33:42;;;;;;;8.15;6.38;;;13.40;99.30;;;;;;5011740;28;20022;-50
2023/05/20 01:36:30;;;;;;;8.73;6.07;;;13.40;99.40;;;;;;5011828;28;20034;-50
2023/05/20 01:39:16;;;;;;;7.50;6.00;;;13.40;99.40;;;;;;5010838;28;20055;-49
2023/05/20 01:42:05;;;;;;;7.07;5.95;;;13.30;99.70;;;;;;5011953;28;20036;-50
2023/05/20 01:44:51;;;;;;;7.85;6.30;;;13.30;99.80;;;;;;5011101;28;20384;-52
2023/05/20 01:47:37;;;;;;;7.03;6.28;;;13.40;99.80;;;;;;5010427;28;20048;-49
2023/05/20 01:50:23;;;;;;;7.18;5.95;;;13.50;99.60;;;;;;5011573;28;20431;-51
2023/05/20 01:53:09;;;;;;;6.68;5.97;;;13.50;99.70;;;;;;5011101;28;20112;-49
2023/05/20 01:55:55;;;;;;;8.27;5.93;;;13.60;99.60;;;;;;5009869;28;20049;-52
2023/05/20 01:58:40;;;;;;;8.63;6.40;;;13.50;99.90;;;;;;5021014;28;20044;-51
2023/05/20 02:01:26;;;;;;;7.85;6.72;;;13.40;99.80;;;;;;5028123;28;20036;-48
2023/05/20 02:04:13;;;;;;;9.55;6.97;;;13.40;99.90;;;;;;5030590;28;20414;-51
2023/05/20 02:06:59;;;;;;;7.43;5.80;;;13.40;99.90;;;;;;5030950;28;20516;-49
2023/05/20 02:09:46;;;;;;;7.53;6.13;;;13.40;99.90;;;;;;5030118;28;20068;-49
2023/05/20 02:12:32;;;;;;;8.20;6.32;;;13.40;99.90;;;;;;5030686;28;20029;-48
2023/05/20 02:15:18;;;;;;;7.55;6.43;;;13.40;99.90;;;;;;5031540;28;20056;-46
2023/05/20 02:18:04;;;;;;;12.27;6.40;;;13.40;99.90;;;;;;5029692;28;20029;-47
2023/05/20 02:20:50;;;;;;;7.13;6.43;;;13.30;99.90;;;;;;5031221;28;20042;-47
2023/05/20 02:23:36;;;;;;;8.25;6.30;;;13.40;99.90;;;;;;5030059;28;20030;-47
2023/05/20 02:26:22;;;;;;;9.05;6.88;;;13.30;99.90;;;;;;5029624;28;20036;-50
2023/05/20 02:29:08;;;;;;;8.45;6.32;;;13.30;99.90;;;;;;5030360;28;20028;-49
2023/05/20 02:31:54;;;;;;;7.65;6.95;;;13.30;99.90;;;;;;5030727;28;20033;-47
2023/05/20 02:34:40;;;;;;;10.02;7.30;;;13.30;99.90;;;;;;5029382;28;20037;-51
2023/05/20 02:37:27;;;;;;;9.82;7.32;;;13.30;99.90;;;;;;5031370;28;20084;-46
2023/05/20 02:40:13;;;;;;;8.45;6.82;;;13.30;99.90;;;;;;5030572;28;20033;-46
2023/05/20 02:43:00;;;;;;;9.88;7.00;;;13.20;99.90;;;;;;5029542;28;20033;-46
2023/05/20 02:45:46;;;;;;;9.80;7.22;;;13.20;99.90;;;;;;5031396;28;20163;-48
2023/05/20 02:48:32;;;;;;;9.73;7.70;;;13.10;99.90;;;;;;5030102;28;20398;-49
2023/05/20 02:51:18;;;;;;;9.63;7.47;;;13.20;99.90;;;;;;5030950;28;20402;-47
2023/05/20 02:54:04;;;;;;;10.77;7.20;;;13.20;99.90;;;;;;5029774;28;20029;-51
2023/05/20 02:56:50;;;;;;;10.95;7.93;;;13.20;99.90;;;;;;5030499;28;20083;-45
2023/05/20 02:59:36;;;;;;;10.88;7.70;;;13.10;99.90;;;;;;5029524;28;20065;-46
2023/05/20 03:02:22;;;;;;;10.07;7.75;;;13.20;99.90;;;;;;5029618;28;20030;-46
2023/05/20 03:05:09;;;;;;;9.52;7.50;;;13.20;99.90;;;;;;5030448;28;20034;-48
2023/05/20 03:07:55;;;;;;;11.02;8.10;;;13.20;99.90;;;;;;5030247;28;20480;-47
2023/05/20 03:10:41;;;;;;;13.32;8.82;;;13.10;99.90;;;;;;5029268;28;20104;-47
2023/05/20 03:13:27;;;;;;;9.68;8.68;;;13.10;99.90;;;;;;5032991;28;20022;-53
2023/05/20 03:16:16;;;;;;;11.80;9.00;;;13.20;99.90;;;;;;5033744;28;20029;-51
2023/05/20 03:19:02;;;;;;;10.63;8.80;;;13.20;99.90;;;;;;5034061;28;20470;-49
2023/05/20 03:21:49;;;;;;;9.43;8.38;;;13.20;99.90;;;;;;5032847;28;20038;-49
2023/05/20 03:24:35;;;;;;;12.73;9.23;;;13.30;99.90;;;;;;5034169;28;20116;-51
2023/05/20 03:27:21;;;;;;;10.90;9.80;;;13.20;99.90;;;;;;5033606;28;20087;-51
2023/05/20 03:30:08;;;;;;;12.70;9.55;;;13.30;99.90;;;;;;5032393;28;20509;-51
2023/05/20 03:33:01;;;;;;;14.63;10.60;;;13.30;99.90;;;;;;5033035;28;20030;-48
2023/05/20 03:35:50;;;;;;;12.52;10.32;;;13.30;99.90;;;;;;5033151;28;20036;-51
2023/05/20 03:38:38;;;;;;;11.93;9.45;;;13.30;99.90;;;;;;5033024;28;20057;-49
2023/05/20 03:41:25;;;;;;;17.38;10.43;;;13.30;99.90;;;;;;5034151;28;20035;-49
2023/05/20 03:44:10;;;;;;;16.50;10.90;;;13.30;99.90;;;;;;5034186;28;20072;-48
2023/05/20 03:46:56;;;;;;;11.55;10.32;;;13.30;99.90;;;;;;5032036;28;20029;-48
2023/05/20 03:49:42;;;;;;;12.93;10.63;;;13.40;99.90;;;;;;5032998;28;20033;-48
2023/05/20 03:52:28;;;;;;;13.00;9.85;;;13.30;99.90;;;;;;5031044;28;20025;-48
2023/05/20 03:55:15;;;;;;;12.30;10.57;;;13.40;99.90;;;;;;5032324;28;20141;-50
2023/05/20 03:58:01;;;;;;;14.70;10.65;;;13.40;99.90;;;;;;5032347;28;20044;-48
2023/05/20 04:00:48;;;;;;;13.02;10.27;;;13.40;99.90;;;;;;5032282;28;20033;-50
2023/05/20 04:03:33;;;;;;;11.82;10.40;;;13.30;99.90;;;;;;5033416;28;20524;-49
2023/05/20 04:06:21;;;;;;;16.13;11.77;;;13.30;99.90;;;;;;5031251;28;20124;-48
2023/05/20 04:09:07;;;;;;;16.90;11.32;;;13.30;99.90;;;;;;5032378;28;20033;-48
2023/05/20 04:11:53;;;;;;;11.75;10.55;;;13.30;99.90;;;;;;5033107;28;20112;-48
2023/05/20 04:14:40;;;;;;;12.95;11.57;;;13.30;99.90;;;;;;5025252;28;20036;-48
2023/05/20 04:17:28;;;;;;;16.80;11.48;;;13.30;99.90;;;;;;5012564;28;20494;-48
2023/05/20 04:20:14;;;;;;;13.93;11.55;;;13.40;99.90;;;;;;5013536;28;20068;-48
2023/05/20 04:23:00;;;;;;;16.02;11.80;;;13.50;99.90;;;;;;5011924;28;20032;-50
2023/05/20 04:25:47;;;;;;;12.50;11.07;;;13.50;99.90;;;;;;5011866;28;20033;-55
2023/05/20 04:28:33;;;;;;;15.27;11.95;;;13.60;99.90;;;;;;5012127;28;20030;-54
2023/05/20 04:31:20;;;;;;;14.18;11.32;;;13.60;99.90;;;;;;5012650;28;20037;-52
2023/05/20 04:34:05;;;;;;;15.38;12.75;;;13.60;99.90;;;;;;5016536;28;20075;-46
2023/05/20 04:36:51;;;;;;;14.60;12.00;;;13.50;99.90;;;;;;5013228;28;20037;-50
2023/05/20 04:39:42;;;;;;;14.70;12.70;;;13.50;99.90;;;;;;5012762;28;20410;-50
2023/05/20 04:42:28;;;;;;;15.68;12.30;;;13.50;99.90;;;;;;5013959;28;20026;-46
2023/05/20 04:45:14;;;;;;;13.93;12.15;;;13.50;99.90;;;;;;5013293;28;20042;-51
2023/05/20 04:48:00;;;;;;;18.23;12.57;;;13.60;99.90;;;;;;5012791;28;20026;-46
2023/05/20 04:50:48;;;;;;;17.17;12.45;;;13.50;99.90;;;;;;5011627;28;20057;-46
2023/05/20 04:53:34;;;;;;;16.05;12.15;;;13.60;99.90;;;;;;5013953;28;20026;-50
2023/05/20 04:56:21;;;;;;;15.70;12.70;;;13.60;99.90;;;;;;5013754;28;20045;-48
2023/05/20 04:59:08;;;;;;;16.85;12.85;;;13.60;99.90;;;;;;5016243;28;20037;-47
2023/05/20 05:01:54;;;;;;;14.40;12.82;;;13.60;99.90;;;;;;5008326;28;20045;-50
2023/05/20 05:04:40;;;;;;;16.30;13.50;;;13.60;99.90;;;;;;5013038;28;20473;-49
2023/05/20 05:07:26;;;;;;;18.08;14.63;;;13.60;99.90;;;;;;5012806;28;20103;-50
2023/05/20 05:10:12;;;;;;;14.63;12.98;;;13.60;99.90;;;;;;5012637;28;20049;-51
2023/05/20 05:12:58;;;;;;;16.10;13.48;;;13.50;99.90;;;;;;5011731;28;20068;-52
2023/05/20 05:15:44;;;;;;;20.85;13.68;;;13.50;99.90;;;;;;5013639;28;20089;-53
2023/05/20 05:18:30;;;;;;;16.60;14.45;;;13.50;99.90;;;;;;5012031;28;20057;-50
2023/05/20 05:21:16;;;;;;;15.82;14.20;;;13.50;99.90;;;;;;5012401;28;20090;-46
2023/05/20 05:24:02;;;;;;;21.65;14.77;;;13.60;99.90;;;;;;5012310;28;20116;-50
2023/05/20 05:26:53;;;;;;;17.92;14.43;;;13.70;99.90;;;;;;5012097;28;20662;-47
2023/05/20 05:29:38;;;;;;;15.70;14.05;;;13.80;99.90;;;;;;5011216;28;20022;-49
2023/05/20 05:32:24;;;;;;;16.00;14.27;;;13.80;99.90;;;;;;5012309;28;20250;-51
2023/05/20 05:35:10;;;;;;;17.25;15.07;;;13.90;99.90;;;;;;5011153;28;20026;-45
2023/05/20 05:37:56;;;;;;;14.98;13.30;;;13.90;99.90;;;;;;5012436;28;20514;-51
2023/05/20 05:40:42;;;;;;;18.38;15.65;;;13.90;99.90;;;;;;5012068;28;20103;-46
2023/05/20 05:43:28;;;;;;;16.83;15.02;;;13.90;99.90;;;;;;5010922;28;20418;-45
2023/05/20 05:46:14;;;;;;;18.60;15.30;;;13.80;99.90;;;;;;5011868;28;20029;-46
2023/05/20 05:49:00;;;;;;;18.73;14.98;;;13.70;99.90;;;;;;5010186;28;20088;-47
2023/05/20 05:51:46;;;;;;;17.48;15.00;;;13.70;99.90;;;;;;5010746;28;20053;-46
2023/05/20 05:54:32;;;;;;;17.25;15.40;;;13.70;99.90;;;;;;5011885;28;20032;-50
2023/05/20 05:57:18;;;;;;;18.80;14.95;;;13.70;99.90;;;;;;5011173;28;20036;-46
2023/05/20 06:00:05;;;;;;;19.75;15.93;;;13.70;99.90;;;;;;5010532;28;20422;-48
2023/05/20 06:02:51;;;;;;;19.20;16.15;;;13.70;99.90;;;;;;5019602;28;20112;-47
2023/05/20 06:05:37;;;;;;;20.10;15.13;;;13.70;99.90;;;;;;5009901;28;20049;-46
2023/05/20 06:08:23;;;;;;;19.33;16.00;;;13.90;99.90;;;;;;5011843;28;20034;-46
2023/05/20 06:11:09;;;;;;;19.23;15.57;;;14.00;99.90;;;;;;5010933;28;20066;-45
2023/05/20 06:13:55;;;;;;;19.50;17.25;;;14.00;99.90;;;;;;5010538;28;20121;-47
2023/05/20 06:16:41;;;;;;;24.15;17.80;;;14.20;99.90;;;;;;5012030;28;20022;-48
2023/05/20 06:19:27;;;;;;;20.73;16.90;;;14.20;99.90;;;;;;5011205;28;20064;-47
2023/05/20 06:22:13;;;;;;;19.50;17.20;;;14.40;99.90;;;;;;5011109;28;20088;-47
2023/05/20 06:25:01;;;;;;;23.63;18.92;;;14.50;99.90;;;;;;5011114;28;20530;-50
2023/05/20 06:27:47;;;;;;;20.70;18.50;;;14.70;99.90;;;;;;5010886;28;20084;-49
2023/05/20 06:30:33;;;;;;;19.98;17.88;;;14.60;99.90;;;;;;5011683;28;20026;-47
2023/05/20 06:33:20;;;;;;;23.45;20.23;;;14.70;99.90;;;;;;5011517;28;20030;-49
2023/05/20 06:36:06;;;;;;;23.90;19.77;;;14.50;99.90;;;;;;5010497;28;20033;-49
2023/05/20 06:38:52;;;;;;;21.38;18.88;;;14.30;99.90;;;;;;5010235;28;20489;-49
2023/05/20 06:41:39;;;;;;;22.60;18.48;;;14.30;99.90;;;;;;5010201;28;20104;-51
2023/05/20 06:44:25;;;;;;;24.20;18.73;;;14.20;99.90;;;;;;5010507;28;20045;-51
2023/05/20 06:47:14;;;;;;;21.50;18.45;;;14.30;99.90;;;;;;5011875;28;20033;-50
2023/05/20 06:50:00;;;;;;;22.33;18.67;;;14.60;99.90;;;;;;5015437;28;20061;-50
2023/05/20 06:52:46;;;;;;;22.40;18.15;;;14.60;99.90;;;;;;5013985;28;20414;-48
2023/05/20 06:55:32;;;;;;;24.38;19.30;;;14.50;99.90;;;;;;5014160;28;20406;-48
2023/05/20 06:58:18;;;;;;;21.98;17.75;;;14.60;99.90;;;;;;5013391;28;20563;-52
2023/05/20 07:01:04;;;;;;;22.90;17.65;;;14.60;99.90;;;;;;5007828;28;20038;-55
2023/05/20 07:03:50;;;;;;;19.85;16.88;;;14.70;99.90;;;;;;5011480;28;20521;-51
2023/05/20 07:06:36;;;;;;;20.05;17.35;;;14.80;99.90;;;;;;5007050;28;20550;-50
2023/05/20 07:09:22;;;;;;;19.63;17.63;;;14.90;99.90;;;;;;5012585;28;20042;-49
2023/05/20 07:12:08;;;;;;;19.95;16.70;;;15.00;99.90;;;;;;5006307;28;20080;-49
2023/05/20 07:14:54;;;;;;;20.38;16.58;;;14.90;99.90;;;;;;5006766;28;20038;-63
2023/05/20 07:17:40;;;;;;;21.33;17.50;;;14.90;99.90;;;;;;5013182;28;20100;-51
2023/05/20 07:20:26;;;;;;;21.05;17.50;;;15.10;99.90;;;;;;5017310;28;20038;-54
2023/05/20 07:23:12;;;;;;;20.25;17.63;;;15.40;99.90;;;;;;5003143;28;20152;-56
2023/05/20 07:25:57;;;;;;;21.92;17.67;;;15.50;99.90;;;;;;5010693;28;20034;-50
2023/05/20 07:28:45;;;;;;;20.20;16.83;;;15.50;99.90;;;;;;5006969;28;20064;-51
2023/05/20 07:31:31;;;;;;;21.50;17.25;;;15.60;99.90;;;;;;5006643;28;20046;-48
2023/05/20 07:34:17;;;;;;;21.92;16.65;;;15.60;99.90;;;;;;5011948;28;20073;-52
2023/05/20 07:37:04;;;;;;;21.92;16.50;;;15.70;99.90;;;;;;5008952;28;20029;-51
2023/05/20 07:39:50;;;;;;;19.70;16.20;;;15.70;99.90;;;;;;5009502;28;20487;-50
2023/05/20 07:42:36;;;;;;;20.77;17.95;;;15.90;99.90;;;;;;5005078;28;20116;-50
2023/05/20 07:45:22;;;;;;;22.33;16.25;;;15.90;99.90;;;;;;5005592;28;20088;-49
2023/05/20 07:48:09;;;;;;;19.98;17.50;;;15.90;99.90;;;;;;4998284;28;20033;-46
2023/05/20 07:50:58;;;;;;;17.73;15.82;;;15.60;99.90;;;;;;5012534;28;20096;-48
2023/05/20 07:53:44;;;;;;;19.63;17.52;;;15.40;99.90;;;;;;5009762;28;20022;-46
2023/05/20 07:56:33;;;;;;;18.15;16.20;;;15.40;99.90;;;;;;5004605;28;20122;-46
2023/05/20 07:59:19;;;;;;;18.83;16.20;;;15.40;99.90;;;;;;5004203;28;20129;-49
2023/05/20 08:02:05;;;;;;;19.85;16.73;;;15.40;99.90;;;;;;5012882;28;20415;-51
2023/05/20 08:04:51;;;;;;;20.77;16.38;;;15.30;99.90;;;;;;5013063;28;20109;-51
2023/05/20 08:07:37;;;;;;;20.85;18.23;;;15.30;99.90;;;;;;5008326;28;20085;-50
2023/05/20 08:10:23;;;;;;;22.33;18.02;;;15.30;99.90;;;;;;5007657;28;20495;-49
2023/05/20 08:13:09;;;;;;;24.50;18.83;;;15.30;99.90;;;;;;5013687;28;20114;-48
2023/05/20 08:15:56;;;;;;;23.10;19.08;;;15.40;99.90;;;;;;5006685;28;20045;-50
2023/05/20 08:18:42;;;;;;;24.95;20.30;;;15.20;99.90;;;;;;5010967;28;20034;-47
2023/05/20 08:21:27;;;;;;;25.10;20.27;;;15.10;99.90;;;;;;5012171;28;20041;-48
2023/05/20 08:24:13;;;;;;;24.35;19.70;;;14.90;99.90;;;;;;5017209;28;20442;-49
2023/05/20 08:27:00;;;;;;;22.75;19.95;;;14.90;99.90;;;;;;5015930;28;20675;-49
2023/05/20 08:29:45;;;;;;;23.48;20.83;;;15.00;99.90;;;;;;5019667;28;20704;-44
2023/05/20 08:32:31;;;;;;;22.77;20.35;;;15.10;99.90;;;;;;5016954;28;20391;-49
2023/05/20 08:35:17;;;;;;;25.05;21.75;;;15.20;99.90;;;;;;5013615;28;20473;-47
2023/05/20 08:38:03;;;;;;;22.67;19.90;;;15.10;99.90;;;;;;5012527;28;20133;-48
2023/05/20 08:40:54;;;;;;;24.88;20.70;;;15.00;99.90;;;;;;5013674;28;20093;-47
2023/05/20 08:43:41;;;;;;;25.02;21.15;;;15.00;99.90;;;;;;5013525;28;20402;-47
2023/05/20 08:46:27;;;;;;;22.92;20.45;;;15.00;99.90;;;;;;5013427;28;20034;-46
2023/05/20 08:49:13;;;;;;;26.83;21.70;;;15.00;99.90;;;;;;5011927;28;20087;-44
2023/05/20 08:52:00;;;;;;;25.55;21.10;;;15.10;99.90;;;;;;5011964;28;20056;-46
2023/05/20 08:54:48;;;;;;;22.35;19.90;;;15.30;99.90;;;;;;5013449;28;20104;-46
2023/05/20 08:57:35;;;;;;;23.58;20.67;;;15.30;99.90;;;;;;5012642;28;20482;-45
2023/05/20 09:00:26;;;;;;;24.67;19.55;;;15.40;99.90;;;;;;5011885;28;20510;-45
2023/05/20 09:03:12;;;;;;;26.45;20.75;;;15.50;99.90;;;;;;5012937;28;20613;-46
2023/05/20 09:06:08;;;;;;;25.58;21.23;;;15.60;99.90;;;;;;5011584;28;20032;-48
2023/05/20 09:08:54;;;;;;;27.48;20.08;;;15.70;99.90;;;;;;5013645;28;20040;-46
2023/05/20 09:11:41;;;;;;;26.15;21.38;;;15.70;99.90;;;;;;5011480;28;20034;-46
2023/05/20 09:14:27;;;;;;;25.00;21.15;;;15.80;99.90;;;;;;5013373;28;20034;-49
2023/05/20 09:17:13;;;;;;;25.05;20.60;;;15.70;99.90;;;;;;5012082;28;20046;-46
2023/05/20 09:19:59;;;;;;;22.88;19.27;;;15.90;99.90;;;;;;5011528;28;20034;-48
2023/05/20 09:22:45;;;;;;;23.88;19.23;;;15.90;99.90;;;;;;5010626;28;20026;-46
2023/05/20 09:25:31;;;;;;;25.80;20.13;;;16.00;99.90;;;;;;5011500;28;20033;-46
2023/05/20 09:28:23;;;;;;;25.90;21.08;;;16.10;99.90;;;;;;5012077;28;20390;-49
2023/05/20 09:31:13;;;;;;;22.83;19.48;;;16.20;99.90;;;;;;5012176;28;20022;-45
2023/05/20 09:34:00;;;;;;;24.73;19.45;;;16.30;99.90;;;;;;5012414;28;20038;-49
2023/05/20 09:36:49;;;;;;;24.38;19.90;;;16.40;99.80;;;;;;5010837;28;20135;-53
2023/05/20 09:40:04;;;;;;;24.45;20.25;;;16.10;99.90;;;;;;5012327;28;20410;-47
2023/05/20 09:42:58;;;;;;;26.67;21.08;;;16.10;99.90;;;;;;5011715;28;20022;-48
2023/05/20 09:45:45;;;;;;;25.92;20.77;;;16.20;99.90;;;;;;5012855;28;20045;-50
2023/05/20 09:48:35;;;;;;;26.40;20.50;;;16.20;99.90;;;;;;5013005;28;20080;-47
2023/05/20 09:51:22;;;;;;;26.52;20.80;;;16.40;99.90;;;;;;5012354;28;20504;-51
2023/05/20 09:54:09;;;;;;;23.33;19.40;;;16.40;99.80;;;;;;4998123;28;20037;-52
2023/05/20 09:56:58;;;;;;;26.05;20.83;;;16.40;99.60;;;;;;5011681;28;20060;-51
2023/05/20 09:59:46;;;;;;;36.35;27.73;;;16.60;99.50;;;;;;5011766;28;20121;-52
2023/05/20 10:02:33;;;;;;;23.13;20.38;;;16.50;99.60;;;;;;5011587;28;20414;-53
2023/05/20 10:05:37;;;;;;;25.98;20.58;;;16.60;99.80;;;;;;5011387;28;20068;-52
2023/05/20 10:08:32;;;;;;;27.75;20.73;;;16.90;99.30;;;;;;5011012;28;20069;-50
2023/05/20 10:11:41;;;;;;;24.60;19.73;;;16.80;99.10;;;;;;5010432;28;20022;-51
2023/05/20 10:14:54;;;;;;;23.05;18.85;;;16.90;99.30;;;;;;5011755;28;20038;-50
2023/05/20 10:17:57;;;;;;;30.75;19.85;;;17.20;98.80;;;;;;5011370;28;20617;-48
2023/05/20 10:20:47;;;;;;;21.58;19.27;;;17.40;98.50;;;;;;5011716;28;20099;-48
2023/05/20 10:23:33;;;;;;;22.77;18.90;;;17.50;98.20;;;;;;5015818;28;20026;-48
2023/05/20 10:26:20;;;;;;;24.10;19.65;;;17.70;97.90;;;;;;5014577;28;20092;-50
2023/05/20 10:29:21;;;;;;;23.52;19.23;;;17.60;97.80;;;;;;5015560;28;20029;-51
2023/05/20 10:32:07;;;;;;;23.45;19.63;;;17.50;98.20;;;;;;5015165;28;20532;-48
2023/05/20 10:34:58;;;;;;;22.50;20.13;;;17.70;97.90;;;;;;5014289;28;20528;-48
2023/05/20 10:37:47;;;;;;;20.75;18.50;;;17.60;97.70;;;;;;5015140;28;20034;-47
2023/05/20 10:40:32;;;;;;;24.40;19.67;;;17.60;97.80;;;;;;5014478;28;20101;-49
2023/05/20 10:43:29;;;;;;;23.50;19.15;;;17.70;97.80;;;;;;5013882;28;20026;-48
2023/05/20 10:46:18;;;;;;;23.63;19.75;;;18.00;97.60;;;;;;5014783;28;20122;-50
2023/05/20 10:49:04;;;;;;;20.15;17.98;;;17.80;97.40;;;;;;5015578;28;20029;-52
2023/05/20 10:51:50;;;;;;;21.70;17.88;;;17.70;97.50;;;;;;5014628;28;20022;-49
2023/05/20 10:54:44;;;;;;;20.73;18.42;;;17.50;97.80;;;;;;5015985;28;20030;-47
2023/05/20 10:57:31;;;;;;;20.35;18.25;;;17.60;97.70;;;;;;5014247;28;20038;-46
2023/05/20 11:00:17;;;;;;;22.13;19.65;;;17.60;97.70;;;;;;5014735;28;20438;-48
2023/05/20 11:03:05;;;;;;;23.65;19.10;;;17.50;97.70;;;;;;5013387;28;20125;-51
2023/05/20 11:05:51;;;;;;;24.67;18.00;;;17.40;98.10;;;;;;5014686;28;20401;-49
2023/05/20 11:08:37;;;;;;;19.92;17.77;;;17.60;97.70;;;;;;5013260;28;20032;-48
2023/05/20 11:11:23;;;;;;;20.60;18.45;;;17.70;97.70;;;;;;5014790;28;20072;-45
2023/05/20 11:14:13;;;;;;;20.40;18.10;;;17.60;97.90;;;;;;5014695;28;20517;-48
2023/05/20 11:16:59;;;;;;;21.60;18.25;;;17.90;97.50;;;;;;5014313;28;20034;-52
2023/05/20 11:19:46;;;;;;;23.25;19.30;;;18.30;96.90;;;;;;5014127;28;20030;-53
2023/05/20 11:22:32;;;;;;;22.92;18.88;;;18.30;96.80;;;;;;5014537;28;20026;-51
2023/05/20 11:25:19;;;;;;;22.92;18.08;;;18.10;96.50;;;;;;5013064;28;20030;-54
2023/05/20 11:28:15;;;;;;;22.95;18.38;;;18.30;97.00;;;;;;5014317;28;20049;-50
2023/05/20 11:31:01;;;;;;;21.35;17.30;;;18.50;96.40;;;;;;5014832;28;20076;-50
2023/05/20 11:33:49;;;;;;;21.58;18.05;;;18.50;96.40;;;;;;5012676;28;20037;-52
2023/05/20 11:36:42;;;;;;;18.67;16.80;;;18.60;96.40;;;;;;5014033;28;20030;-54
2023/05/20 11:39:29;;;;;;;19.88;16.85;;;19.00;96.30;;;;;;5013196;28;20376;-52
2023/05/20 11:42:15;;;;;;;20.92;17.58;;;19.20;95.70;;;;;;5014536;28;20065;-51
2023/05/20 11:45:02;;;;;;;18.88;16.30;;;19.10;95.40;;;;;;5013661;28;20038;-51
2023/05/20 11:48:04;;;;;;;18.85;16.75;;;19.20;95.80;;;;;;5013322;28;20395;-52
2023/05/20 11:50:53;;;;;;;20.45;17.45;;;19.40;95.30;;;;;;5013150;28;20037;-52
2023/05/20 11:53:40;;;;;;;18.80;16.83;;;19.40;95.20;;;;;;5012511;28;20030;-48
2023/05/20 11:56:29;;;;;;;18.77;16.77;;;19.10;95.30;;;;;;5013202;28;20567;-52
2023/05/20 11:59:15;;;;;;;22.75;19.05;;;19.20;95.60;;;;;;5013444;28;20411;-54
2023/05/20 12:02:01;;;;;;;23.27;17.55;;;19.30;95.30;;;;;;5012668;28;20444;-51
2023/05/20 12:04:47;;;;;;;19.70;17.33;;;19.40;95.30;;;;;;5012992;28;20030;-50
2023/05/20 12:07:33;;;;;;;18.55;16.58;;;19.60;94.70;;;;;;5012062;28;20105;-51
2023/05/20 12:10:19;;;;;;;20.67;18.35;;;19.60;95.10;;;;;;5013511;28;20113;-54
2023/05/20 12:13:07;;;;;;;19.08;17.02;;;19.50;94.90;;;;;;5013221;28;20032;-52
2023/05/20 12:15:53;;;;;;;18.85;16.83;;;19.60;95.00;;;;;;5013394;28;20037;-54
2023/05/20 12:18:39;;;;;;;18.88;16.77;;;19.80;94.80;;;;;;5012149;28;20046;-53
2023/05/20 12:21:27;;;;;;;19.35;17.42;;;20.00;94.60;;;;;;5013798;28;20034;-53
2023/05/20 12:24:13;;;;;;;24.23;16.25;;;20.30;94.20;;;;;;5013631;28;20191;-49
2023/05/20 12:26:59;;;;;;;20.08;17.00;;;20.40;93.80;;;;;;5011641;28;20422;-50
2023/05/20 12:29:44;;;;;;;18.17;16.27;;;20.40;93.90;;;;;;5013585;28;20511;-51
2023/05/20 12:32:30;;;;;;;22.67;16.77;;;20.50;94.10;;;;;;5011880;28;20026;-51
2023/05/20 12:35:23;;;;;;;18.02;16.08;;;20.50;93.60;;;;;;5011475;28;20170;-51
2023/05/20 12:38:09;;;;;;;20.27;16.58;;;20.70;93.40;;;;;;5012866;28;20022;-54
2023/05/20 12:40:55;;;;;;;19.00;16.75;;;20.70;93.00;;;;;;5015279;28;20438;-51
2023/05/20 12:43:41;;;;;;;20.92;16.50;;;20.30;93.80;;;;;;5012469;28;20482;-52
2023/05/20 12:46:27;;;;;;;21.08;17.45;;;20.50;93.80;;;;;;5011893;28;20044;-52
2023/05/20 12:49:13;;;;;;;18.67;16.65;;;20.60;93.60;;;;;;5012488;28;20522;-50
2023/05/20 12:51:59;;;;;;;20.30;17.15;;;20.60;93.80;;;;;;5011640;28;20026;-51
2023/05/20 12:54:45;;;;;;;19.75;16.73;;;20.70;93.40;;;;;;5011398;28;20065;-53
2023/05/20 12:57:31;;;;;;;18.27;16.15;;;20.90;93.30;;;;;;5011370;28;20076;-53
2023/05/20 13:00:17;;;;;;;19.15;17.15;;;21.30;92.80;;;;;;5012247;28;20034;-54
2023/05/20 13:03:03;;;;;;;20.02;16.85;;;21.60;92.40;;;;;;5013023;28;20030;-54
2023/05/20 13:05:49;;;;;;;19.45;16.98;;;21.60;92.20;;;;;;5011157;28;20081;-52
2023/05/20 13:08:35;;;;;;;19.60;17.55;;;21.60;92.30;;;;;;5011196;28;20109;-52
2023/05/20 13:11:21;;;;;;;20.17;18.00;;;21.50;92.60;;;;;;5011276;28;20061;-52
2023/05/20 13:14:07;;;;;;;21.35;17.00;;;21.50;92.30;;;;;;5011262;28;20025;-51
2023/05/20 13:16:53;;;;;;;18.50;16.38;;;21.60;92.70;;;;;;5010054;28;20026;-49
2023/05/20 13:19:39;;;;;;;20.70;18.05;;;21.50;92.80;;;;;;5012616;28;20022;-54
2023/05/20 13:22:25;;;;;;;20.23;17.75;;;21.90;92.30;;;;;;5010805;28;20124;-50
2023/05/20 13:25:11;;;;;;;23.15;17.73;;;22.30;91.70;;;;;;5010850;28;20037;-50
2023/05/20 13:27:57;;;;;;;21.48;18.45;;;22.40;91.40;;;;;;5011600;28;20034;-52
2023/05/20 13:30:43;;;;;;;20.80;18.60;;;22.30;91.30;;;;;;5011479;28;20030;-54
2023/05/20 13:33:29;;;;;;;21.15;18.98;;;22.40;91.40;;;;;;5010681;28;20038;-52
2023/05/20 13:36:15;;;;;;;24.13;19.05;;;22.40;91.20;;;;;;5010373;28;20120;-51
2023/05/20 13:39:01;;;;;;;27.83;19.73;;;22.30;91.20;;;;;;5011341;28;20029;-50
2023/05/20 13:41:47;;;;;;;23.27;19.70;;;22.20;91.70;;;;;;5010852;28;20034;-50
2023/05/20 13:44:33;;;;;;;23.55;19.00;;;22.40;91.50;;;;;;5011476;28;20398;-50
2023/05/20 13:47:19;;;;;;;22.80;20.10;;;22.40;91.80;;;;;;5010635;28;20018;-52
2023/05/20 13:50:05;;;;;;;22.45;20.08;;;22.50;91.40;;;;;;5012579;28;20026;-53
2023/05/20 13:52:51;;;;;;;24.27;19.27;;;22.40;91.20;;;;;;5011839;28;20408;-51
2023/05/20 13:55:40;;;;;;;22.15;19.55;;;22.50;91.40;;;;;;5010991;28;20487;-50
2023/05/20 13:58:26;;;;;;;21.02;18.77;;;22.80;91.00;;;;;;5010287;28;20065;-53
2023/05/20 14:01:14;;;;;;;24.08;18.88;;;23.00;90.50;;;;;;5011927;28;20033;-52
2023/05/20 14:04:00;;;;;;;21.38;18.98;;;23.00;90.60;;;;;;5011844;28;20409;-51
2023/05/20 14:06:46;;;;;;;22.63;20.25;;;22.90;90.70;;;;;;5010863;28;20120;-52
2023/05/20 14:09:32;;;;;;;21.73;19.23;;;22.70;90.80;;;;;;5010582;28;20045;-49
2023/05/20 14:12:18;;;;;;;23.08;19.48;;;22.70;90.70;;;;;;5010822;28;20477;-51